sensor_id;sensor_type;location;lat;lon;timestamp;temperature;humidity
9975;DHT22;5028;50.974;4.968;2023-08-12T00:01:10;20.90;99.90
9975;DHT22;5028;50.974;4.968;2023-08-12T00:03:38;20.90;99.90
9975;DHT22;5028;50.974;4.968;2023-08-12T00:06:09;20.80;99.90
9975;DHT22;5028;50.974;4.968;2023-08-12T00:08:37;20.80;99.90
9975;DHT22;5028;50.974;4.968;2023-08-12T00:11:06;20.80;99.90
9975;DHT22;5028;50.974;4.968;2023-08-12T00:13:35;20.70;99.90
9975;DHT22;5028;50.974;4.968;2023-08-12T00:16:04;20.80;99.90
9975;DHT22;5028;50.974;4.968;2023-08-12T00:18:33;20.70;99.90
9975;DHT22;5028;50.974;4.968;2023-08-12T00:21:08;20.80;99.90
9975;DHT22;5028;50.974;4.968;2023-08-12T00:23:39;20.80;99.90
9975;DHT22;5028;50.974;4.968;2023-08-12T00:26:08;20.70;99.90
9975;DHT22;5028;50.974;4.968;2023-08-12T00:28:37;20.70;99.90
9975;DHT22;5028;50.974;4.968;2023-08-12T00:31:07;20.70;99.90
9975;DHT22;5028;50.974;4.968;2023-08-12T00:33:36;20.70;99.90
9975;DHT22;5028;50.974;4.968;2023-08-12T00:36:05;20.70;99.90
9975;DHT22;5028;50.974;4.968;2023-08-12T00:38:35;20.70;99.90
9975;DHT22;5028;50.974;4.968;2023-08-12T00:41:06;20.70;99.90
9975;DHT22;5028;50.974;4.968;2023-08-12T00:43:34;20.60;99.90
9975;DHT22;5028;50.974;4.968;2023-08-12T00:46:04;20.60;99.90
9975;DHT22;5028;50.974;4.968;2023-08-12T00:48:33;20.60;99.90
9975;DHT22;5028;50.974;4.968;2023-08-12T00:51:02;20.60;99.90
9975;DHT22;5028;50.974;4.968;2023-08-12T00:53:31;20.60;99.90
9975;DHT22;5028;50.974;4.968;2023-08-12T00:56:02;20.50;99.90
9975;DHT22;5028;50.974;4.968;2023-08-12T00:58:31;20.50;99.90
9975;DHT22;5028;50.974;4.968;2023-08-12T01:01:01;20.40;99.90
9975;DHT22;5028;50.974;4.968;2023-08-12T01:03:30;20.40;99.90
9975;DHT22;5028;50.974;4.968;2023-08-12T01:05:59;20.40;99.90
9975;DHT22;5028;50.974;4.968;2023-08-12T01:08:31;20.40;99.90
9975;DHT22;5028;50.974;4.968;2023-08-12T01:11:08;20.40;99.90
9975;DHT22;5028;50.974;4.968;2023-08-12T01:13:46;20.40;99.90
9975;DHT22;5028;50.974;4.968;2023-08-12T01:16:17;20.40;99.90
9975;DHT22;5028;50.974;4.968;2023-08-12T01:18:48;20.40;99.90
9975;DHT22;5028;50.974;4.968;2023-08-12T01:21:17;20.40;99.90
9975;DHT22;5028;50.974;4.968;2023-08-12T01:23:51;20.40;99.90
9975;DHT22;5028;50.974;4.968;2023-08-12T01:26:20;20.30;99.90
9975;DHT22;5028;50.974;4.968;2023-08-12T01:28:49;20.30;99.90
9975;DHT22;5028;50.974;4.968;2023-08-12T01:31:23;20.20;99.90
9975;DHT22;5028;50.974;4.968;2023-08-12T01:34:00;20.20;99.90
9975;DHT22;5028;50.974;4.968;2023-08-12T01:36:32;20.20;99.90
9975;DHT22;5028;50.974;4.968;2023-08-12T01:39:05;20.10;99.90
9975;DHT22;5028;50.974;4.968;2023-08-12T01:41:36;20.10;99.90
9975;DHT22;5028;50.974;4.968;2023-08-12T01:44:05;20.10;99.90
9975;DHT22;5028;50.974;4.968;2023-08-12T01:46:36;20.10;99.90
9975;DHT22;5028;50.974;4.968;2023-08-12T01:49:05;20.10;99.90
9975;DHT22;5028;50.974;4.968;2023-08-12T01:51:33;20.10;99.90
9975;DHT22;5028;50.974;4.968;2023-08-12T01:54:04;20.20;99.90
9975;DHT22;5028;50.974;4.968;2023-08-12T01:56:33;20.20;99.90
9975;DHT22;5028;50.974;4.968;2023-08-12T01:59:02;20.20;99.90
9975;DHT22;5028;50.974;4.968;2023-08-12T02:01:31;20.20;99.90
9975;DHT22;5028;50.974;4.968;2023-08-12T02:04:00;20.10;99.90
9975;DHT22;5028;50.974;4.968;2023-08-12T02:06:29;20.10;99.90
9975;DHT22;5028;50.974;4.968;2023-08-12T02:08:59;20.10;99.90
9975;DHT22;5028;50.974;4.968;2023-08-12T02:11:29;20.20;99.90
9975;DHT22;5028;50.974;4.968;2023-08-12T02:13:57;20.20;99.90
9975;DHT22;5028;50.974;4.968;2023-08-12T02:16:26;20.20;99.90
9975;DHT22;5028;50.974;4.968;2023-08-12T02:18:55;20.20;99.90
9975;DHT22;5028;50.974;4.968;2023-08-12T02:21:24;20.20;99.90
9975;DHT22;5028;50.974;4.968;2023-08-12T02:23:54;20.20;99.90
9975;DHT22;5028;50.974;4.968;2023-08-12T02:26:22;20.20;99.90
9975;DHT22;5028;50.974;4.968;2023-08-12T02:28:53;20.20;99.90
9975;DHT22;5028;50.974;4.968;2023-08-12T02:31:22;20.20;99.90
9975;DHT22;5028;50.974;4.968;2023-08-12T02:33:52;20.20;99.90
9975;DHT22;5028;50.974;4.968;2023-08-12T02:36:21;20.20;99.90
9975;DHT22;5028;50.974;4.968;2023-08-12T02:38:53;20.20;99.90
9975;DHT22;5028;50.974;4.968;2023-08-12T02:41:21;20.10;99.90
9975;DHT22;5028;50.974;4.968;2023-08-12T02:43:50;20.10;99.90
9975;DHT22;5028;50.974;4.968;2023-08-12T02:46:21;20.10;99.90
9975;DHT22;5028;50.974;4.968;2023-08-12T02:48:52;20.10;99.90
9975;DHT22;5028;50.974;4.968;2023-08-12T02:51:21;20.10;99.90
9975;DHT22;5028;50.974;4.968;2023-08-12T02:53:50;20.10;99.90
9975;DHT22;5028;50.974;4.968;2023-08-12T02:56:19;20.10;99.90
9975;DHT22;5028;50.974;4.968;2023-08-12T02:58:48;20.10;99.90
9975;DHT22;5028;50.974;4.968;2023-08-12T03:01:16;20.10;99.90
9975;DHT22;5028;50.974;4.968;2023-08-12T03:03:47;20.10;99.90
9975;DHT22;5028;50.974;4.968;2023-08-12T03:06:16;20.10;99.90
9975;DHT22;5028;50.974;4.968;2023-08-12T03:08:45;20.20;99.90
9975;DHT22;5028;50.974;4.968;2023-08-12T03:11:14;20.10;99.90
9975;DHT22;5028;50.974;4.968;2023-08-12T03:13:45;20.20;99.90
9975;DHT22;5028;50.974;4.968;2023-08-12T03:16:15;20.20;99.90
9975;DHT22;5028;50.974;4.968;2023-08-12T03:18:43;20.10;99.90
9975;DHT22;5028;50.974;4.968;2023-08-12T03:21:14;20.10;99.90
9975;DHT22;5028;50.974;4.968;2023-08-12T03:23:43;20.10;99.90
9975;DHT22;5028;50.974;4.968;2023-08-12T03:26:12;20.10;99.90
9975;DHT22;5028;50.974;4.968;2023-08-12T03:28:41;20.10;99.90
9975;DHT22;5028;50.974;4.968;2023-08-12T03:31:09;20.10;99.90
9975;DHT22;5028;50.974;4.968;2023-08-12T03:33:38;20.10;99.90
9975;DHT22;5028;50.974;4.968;2023-08-12T03:36:07;20.10;99.90
9975;DHT22;5028;50.974;4.968;2023-08-12T03:38:37;20.00;99.90
9975;DHT22;5028;50.974;4.968;2023-08-12T03:41:06;20.00;99.90
9975;DHT22;5028;50.974;4.968;2023-08-12T03:43:35;20.10;99.90
9975;DHT22;5028;50.974;4.968;2023-08-12T03:46:05;20.10;99.90
9975;DHT22;5028;50.974;4.968;2023-08-12T03:48:34;20.10;99.90
9975;DHT22;5028;50.974;4.968;2023-08-12T03:51:03;20.10;99.90
9975;DHT22;5028;50.974;4.968;2023-08-12T03:53:33;20.00;99.90
9975;DHT22;5028;50.974;4.968;2023-08-12T03:56:05;20.10;99.90
9975;DHT22;5028;50.974;4.968;2023-08-12T03:58:35;20.10;99.90
9975;DHT22;5028;50.974;4.968;2023-08-12T04:01:04;20.10;99.90
9975;DHT22;5028;50.974;4.968;2023-08-12T04:03:33;20.10;99.90
9975;DHT22;5028;50.974;4.968;2023-08-12T04:06:02;20.10;99.90
9975;DHT22;5028;50.974;4.968;2023-08-12T04:08:31;20.00;99.90
9975;DHT22;5028;50.974;4.968;2023-08-12T04:11:00;20.00;99.90
9975;DHT22;5028;50.974;4.968;2023-08-12T04:13:31;19.90;99.90
9975;DHT22;5028;50.974;4.968;2023-08-12T04:16:00;19.90;99.90
9975;DHT22;5028;50.974;4.968;2023-08-12T04:18:29;19.90;99.90
9975;DHT22;5028;50.974;4.968;2023-08-12T04:20:58;19.80;99.90
9975;DHT22;5028;50.974;4.968;2023-08-12T04:23:27;19.80;99.90
9975;DHT22;5028;50.974;4.968;2023-08-12T04:25:56;19.80;99.90
9975;DHT22;5028;50.974;4.968;2023-08-12T04:28:25;19.80;99.90
9975;DHT22;5028;50.974;4.968;2023-08-12T04:30:55;19.80;99.90
9975;DHT22;5028;50.974;4.968;2023-08-12T04:33:24;19.90;99.90
9975;DHT22;5028;50.974;4.968;2023-08-12T04:35:54;19.90;99.90
9975;DHT22;5028;50.974;4.968;2023-08-12T04:38:22;19.90;99.90
9975;DHT22;5028;50.974;4.968;2023-08-12T04:40:53;19.80;99.90
9975;DHT22;5028;50.974;4.968;2023-08-12T04:43:22;19.90;99.90
9975;DHT22;5028;50.974;4.968;2023-08-12T04:45:51;19.80;99.90
9975;DHT22;5028;50.974;4.968;2023-08-12T04:48:22;19.80;99.90
9975;DHT22;5028;50.974;4.968;2023-08-12T04:50:51;19.80;99.90
9975;DHT22;5028;50.974;4.968;2023-08-12T04:53:20;19.80;99.90
9975;DHT22;5028;50.974;4.968;2023-08-12T04:55:50;19.70;99.90
9975;DHT22;5028;50.974;4.968;2023-08-12T04:58:19;19.80;99.90
9975;DHT22;5028;50.974;4.968;2023-08-12T05:00:47;19.80;99.90
9975;DHT22;5028;50.974;4.968;2023-08-12T05:03:16;19.80;99.90
9975;DHT22;5028;50.974;4.968;2023-08-12T05:05:50;19.80;99.90
9975;DHT22;5028;50.974;4.968;2023-08-12T05:08:19;19.90;99.90
9975;DHT22;5028;50.974;4.968;2023-08-12T05:10:48;19.90;99.90
9975;DHT22;5028;50.974;4.968;2023-08-12T05:13:17;19.80;99.90
9975;DHT22;5028;50.974;4.968;2023-08-12T05:15:46;19.80;99.90
9975;DHT22;5028;50.974;4.968;2023-08-12T05:18:16;19.90;99.90
9975;DHT22;5028;50.974;4.968;2023-08-12T05:20:46;19.90;99.90
9975;DHT22;5028;50.974;4.968;2023-08-12T05:23:16;19.90;99.90
9975;DHT22;5028;50.974;4.968;2023-08-12T05:25:45;19.90;99.90
9975;DHT22;5028;50.974;4.968;2023-08-12T05:28:14;19.90;99.90
9975;DHT22;5028;50.974;4.968;2023-08-12T05:30:43;19.90;99.90
9975;DHT22;5028;50.974;4.968;2023-08-12T05:33:11;19.90;99.90
9975;DHT22;5028;50.974;4.968;2023-08-12T05:35:40;19.90;99.90
9975;DHT22;5028;50.974;4.968;2023-08-12T05:38:09;19.90;99.90
9975;DHT22;5028;50.974;4.968;2023-08-12T05:40:39;19.90;99.90
9975;DHT22;5028;50.974;4.968;2023-08-12T05:43:08;19.80;99.90
9975;DHT22;5028;50.974;4.968;2023-08-12T05:45:37;19.90;99.90
9975;DHT22;5028;50.974;4.968;2023-08-12T05:48:06;19.90;99.90
9975;DHT22;5028;50.974;4.968;2023-08-12T05:50:35;19.90;99.90
9975;DHT22;5028;50.974;4.968;2023-08-12T05:53:04;19.90;99.90
9975;DHT22;5028;50.974;4.968;2023-08-12T05:55:33;19.90;99.90
9975;DHT22;5028;50.974;4.968;2023-08-12T05:58:05;19.90;99.90
9975;DHT22;5028;50.974;4.968;2023-08-12T06:00:33;19.90;99.90
9975;DHT22;5028;50.974;4.968;2023-08-12T06:03:02;19.90;99.90
9975;DHT22;5028;50.974;4.968;2023-08-12T06:05:31;19.90;99.90
9975;DHT22;5028;50.974;4.968;2023-08-12T06:08:00;19.90;99.90
9975;DHT22;5028;50.974;4.968;2023-08-12T06:10:29;19.90;99.90
9975;DHT22;5028;50.974;4.968;2023-08-12T06:12:58;19.90;99.90
9975;DHT22;5028;50.974;4.968;2023-08-12T06:15:28;19.90;99.90
9975;DHT22;5028;50.974;4.968;2023-08-12T06:17:57;20.00;99.90
9975;DHT22;5028;50.974;4.968;2023-08-12T06:20:26;19.90;99.90
9975;DHT22;5028;50.974;4.968;2023-08-12T06:22:55;20.00;99.90
9975;DHT22;5028;50.974;4.968;2023-08-12T06:25:24;19.90;99.90
9975;DHT22;5028;50.974;4.968;2023-08-12T06:27:53;19.90;99.90
9975;DHT22;5028;50.974;4.968;2023-08-12T06:30:22;19.90;99.90
9975;DHT22;5028;50.974;4.968;2023-08-12T06:32:53;20.00;99.90
9975;DHT22;5028;50.974;4.968;2023-08-12T06:35:22;20.00;99.90
9975;DHT22;5028;50.974;4.968;2023-08-12T06:37:50;20.00;99.90
9975;DHT22;5028;50.974;4.968;2023-08-12T06:40:20;20.00;99.90
9975;DHT22;5028;50.974;4.968;2023-08-12T06:42:49;20.00;99.90
9975;DHT22;5028;50.974;4.968;2023-08-12T06:45:19;20.00;99.90
9975;DHT22;5028;50.974;4.968;2023-08-12T06:47:48;20.00;99.90
9975;DHT22;5028;50.974;4.968;2023-08-12T06:50:18;20.00;99.90
9975;DHT22;5028;50.974;4.968;2023-08-12T06:52:46;20.00;99.90
9975;DHT22;5028;50.974;4.968;2023-08-12T06:55:15;20.10;99.90
9975;DHT22;5028;50.974;4.968;2023-08-12T06:57:44;20.10;99.90
9975;DHT22;5028;50.974;4.968;2023-08-12T07:00:14;20.10;99.90
9975;DHT22;5028;50.974;4.968;2023-08-12T07:02:43;20.10;99.90
9975;DHT22;5028;50.974;4.968;2023-08-12T07:05:12;20.10;99.90
9975;DHT22;5028;50.974;4.968;2023-08-12T07:07:42;20.10;99.90
9975;DHT22;5028;50.974;4.968;2023-08-12T07:10:13;20.20;99.90
9975;DHT22;5028;50.974;4.968;2023-08-12T07:12:41;20.20;99.90
9975;DHT22;5028;50.974;4.968;2023-08-12T07:15:11;20.20;99.90
9975;DHT22;5028;50.974;4.968;2023-08-12T07:17:40;20.20;99.90
9975;DHT22;5028;50.974;4.968;2023-08-12T07:20:09;20.20;99.90
9975;DHT22;5028;50.974;4.968;2023-08-12T07:22:38;20.20;99.90
9975;DHT22;5028;50.974;4.968;2023-08-12T07:25:10;20.30;99.90
9975;DHT22;5028;50.974;4.968;2023-08-12T07:27:39;20.30;99.90
9975;DHT22;5028;50.974;4.968;2023-08-12T07:30:08;20.30;99.90
9975;DHT22;5028;50.974;4.968;2023-08-12T07:32:38;20.30;99.90
9975;DHT22;5028;50.974;4.968;2023-08-12T07:35:08;20.30;99.90
9975;DHT22;5028;50.974;4.968;2023-08-12T07:37:38;20.30;99.90
9975;DHT22;5028;50.974;4.968;2023-08-12T07:40:10;20.30;99.90
9975;DHT22;5028;50.974;4.968;2023-08-12T07:42:39;20.30;99.90
9975;DHT22;5028;50.974;4.968;2023-08-12T07:45:09;20.30;99.90
9975;DHT22;5028;50.974;4.968;2023-08-12T07:47:37;20.30;99.90
9975;DHT22;5028;50.974;4.968;2023-08-12T07:50:07;20.30;99.90
9975;DHT22;5028;50.974;4.968;2023-08-12T07:52:38;20.30;99.90
9975;DHT22;5028;50.974;4.968;2023-08-12T07:55:09;20.30;99.90
9975;DHT22;5028;50.974;4.968;2023-08-12T07:57:37;20.30;99.90
9975;DHT22;5028;50.974;4.968;2023-08-12T08:00:07;20.40;99.90
9975;DHT22;5028;50.974;4.968;2023-08-12T08:02:40;20.40;99.90
9975;DHT22;5028;50.974;4.968;2023-08-12T08:05:11;20.40;99.90
9975;DHT22;5028;50.974;4.968;2023-08-12T08:07:40;20.50;99.90
9975;DHT22;5028;50.974;4.968;2023-08-12T08:10:11;20.50;99.90
9975;DHT22;5028;50.974;4.968;2023-08-12T08:12:39;20.50;99.90
9975;DHT22;5028;50.974;4.968;2023-08-12T08:15:09;20.50;99.90
9975;DHT22;5028;50.974;4.968;2023-08-12T08:17:38;20.50;99.90
9975;DHT22;5028;50.974;4.968;2023-08-12T08:20:09;20.50;99.90
9975;DHT22;5028;50.974;4.968;2023-08-12T08:22:38;20.50;99.90
9975;DHT22;5028;50.974;4.968;2023-08-12T08:25:07;20.50;99.90
9975;DHT22;5028;50.974;4.968;2023-08-12T08:27:38;20.60;99.90
9975;DHT22;5028;50.974;4.968;2023-08-12T08:30:11;20.60;99.90
9975;DHT22;5028;50.974;4.968;2023-08-12T08:32:40;20.70;99.90
9975;DHT22;5028;50.974;4.968;2023-08-12T08:35:09;20.80;99.90
9975;DHT22;5028;50.974;4.968;2023-08-12T08:37:37;20.80;99.90
9975;DHT22;5028;50.974;4.968;2023-08-12T08:40:08;20.80;99.90
9975;DHT22;5028;50.974;4.968;2023-08-12T08:42:39;20.80;99.90
9975;DHT22;5028;50.974;4.968;2023-08-12T08:45:13;20.70;99.90
9975;DHT22;5028;50.974;4.968;2023-08-12T08:47:42;20.60;99.90
9975;DHT22;5028;50.974;4.968;2023-08-12T08:50:12;20.50;99.90
9975;DHT22;5028;50.974;4.968;2023-08-12T08:52:41;20.40;99.90
9975;DHT22;5028;50.974;4.968;2023-08-12T08:55:11;20.30;99.90
9975;DHT22;5028;50.974;4.968;2023-08-12T08:57:43;20.30;99.90
9975;DHT22;5028;50.974;4.968;2023-08-12T09:00:14;20.20;99.90
9975;DHT22;5028;50.974;4.968;2023-08-12T09:02:46;20.20;99.90
9975;DHT22;5028;50.974;4.968;2023-08-12T09:05:16;20.20;99.90
9975;DHT22;5028;50.974;4.968;2023-08-12T09:07:46;20.30;99.90
9975;DHT22;5028;50.974;4.968;2023-08-12T09:10:16;20.20;99.90
9975;DHT22;5028;50.974;4.968;2023-08-12T09:12:48;20.20;99.90
9975;DHT22;5028;50.974;4.968;2023-08-12T09:15:20;20.30;99.90
9975;DHT22;5028;50.974;4.968;2023-08-12T09:17:49;20.30;99.90
9975;DHT22;5028;50.974;4.968;2023-08-12T09:20:17;20.20;99.90
9975;DHT22;5028;50.974;4.968;2023-08-12T09:22:56;20.20;99.90
9975;DHT22;5028;50.974;4.968;2023-08-12T09:25:26;20.20;99.90
9975;DHT22;5028;50.974;4.968;2023-08-12T09:28:00;20.10;99.90
9975;DHT22;5028;50.974;4.968;2023-08-12T09:30:29;20.00;99.90
9975;DHT22;5028;50.974;4.968;2023-08-12T09:32:59;20.00;99.90
9975;DHT22;5028;50.974;4.968;2023-08-12T09:35:34;19.80;99.90
9975;DHT22;5028;50.974;4.968;2023-08-12T09:38:04;19.70;99.90
9975;DHT22;5028;50.974;4.968;2023-08-12T09:40:36;19.70;99.90
9975;DHT22;5028;50.974;4.968;2023-08-12T09:43:08;19.80;99.90
9975;DHT22;5028;50.974;4.968;2023-08-12T09:45:40;20.00;99.90
9975;DHT22;5028;50.974;4.968;2023-08-12T09:48:09;20.20;99.90
9975;DHT22;5028;50.974;4.968;2023-08-12T09:50:41;20.30;99.90
9975;DHT22;5028;50.974;4.968;2023-08-12T09:53:10;20.40;99.90
9975;DHT22;5028;50.974;4.968;2023-08-12T09:55:39;20.40;99.90
9975;DHT22;5028;50.974;4.968;2023-08-12T09:58:12;20.30;99.90
9975;DHT22;5028;50.974;4.968;2023-08-12T10:00:41;20.20;99.90
9975;DHT22;5028;50.974;4.968;2023-08-12T10:03:13;20.20;99.90
9975;DHT22;5028;50.974;4.968;2023-08-12T10:05:43;20.30;99.90
9975;DHT22;5028;50.974;4.968;2023-08-12T10:08:14;20.40;99.90
9975;DHT22;5028;50.974;4.968;2023-08-12T10:10:43;20.40;99.90
9975;DHT22;5028;50.974;4.968;2023-08-12T10:13:28;20.40;99.90
9975;DHT22;5028;50.974;4.968;2023-08-12T10:15:57;20.30;99.90
9975;DHT22;5028;50.974;4.968;2023-08-12T10:18:27;20.30;99.90
9975;DHT22;5028;50.974;4.968;2023-08-12T10:20:58;20.30;99.90
9975;DHT22;5028;50.974;4.968;2023-08-12T10:23:28;20.40;99.90
9975;DHT22;5028;50.974;4.968;2023-08-12T10:26:00;20.50;99.90
9975;DHT22;5028;50.974;4.968;2023-08-12T10:28:34;20.60;99.90
9975;DHT22;5028;50.974;4.968;2023-08-12T10:31:07;20.70;99.90
9975;DHT22;5028;50.974;4.968;2023-08-12T10:33:36;20.70;99.90
9975;DHT22;5028;50.974;4.968;2023-08-12T10:36:06;20.70;99.90
9975;DHT22;5028;50.974;4.968;2023-08-12T10:38:36;20.60;99.90
9975;DHT22;5028;50.974;4.968;2023-08-12T10:41:16;20.50;99.90
9975;DHT22;5028;50.974;4.968;2023-08-12T10:43:52;20.40;99.90
9975;DHT22;5028;50.974;4.968;2023-08-12T10:46:23;20.40;99.90
9975;DHT22;5028;50.974;4.968;2023-08-12T10:48:58;20.50;99.90
9975;DHT22;5028;50.974;4.968;2023-08-12T10:51:45;20.50;99.90
9975;DHT22;5028;50.974;4.968;2023-08-12T10:54:15;20.50;99.90
9975;DHT22;5028;50.974;4.968;2023-08-12T10:57:16;20.40;99.90
9975;DHT22;5028;50.974;4.968;2023-08-12T10:59:52;20.50;99.90
9975;DHT22;5028;50.974;4.968;2023-08-12T11:02:33;20.50;99.90
9975;DHT22;5028;50.974;4.968;2023-08-12T11:05:06;20.60;99.90
9975;DHT22;5028;50.974;4.968;2023-08-12T11:07:39;20.60;99.90
9975;DHT22;5028;50.974;4.968;2023-08-12T11:10:13;20.60;99.90
9975;DHT22;5028;50.974;4.968;2023-08-12T11:12:52;20.60;99.90
9975;DHT22;5028;50.974;4.968;2023-08-12T11:15:33;20.60;99.90
9975;DHT22;5028;50.974;4.968;2023-08-12T11:18:06;20.80;99.90
9975;DHT22;5028;50.974;4.968;2023-08-12T11:20:38;21.00;99.90
9975;DHT22;5028;50.974;4.968;2023-08-12T11:23:08;21.30;99.90
9975;DHT22;5028;50.974;4.968;2023-08-12T11:25:39;21.80;99.90
9975;DHT22;5028;50.974;4.968;2023-08-12T11:28:10;22.10;99.90
9975;DHT22;5028;50.974;4.968;2023-08-12T11:30:42;22.20;99.90
9975;DHT22;5028;50.974;4.968;2023-08-12T11:33:16;22.30;99.90
9975;DHT22;5028;50.974;4.968;2023-08-12T11:35:47;22.10;99.90
9975;DHT22;5028;50.974;4.968;2023-08-12T11:38:16;22.10;99.90
9975;DHT22;5028;50.974;4.968;2023-08-12T11:40:47;22.40;99.90
9975;DHT22;5028;50.974;4.968;2023-08-12T11:43:15;22.40;99.90
9975;DHT22;5028;50.974;4.968;2023-08-12T11:45:47;22.60;99.90
9975;DHT22;5028;50.974;4.968;2023-08-12T11:48:16;22.90;99.90
9975;DHT22;5028;50.974;4.968;2023-08-12T11:50:49;23.10;99.90
9975;DHT22;5028;50.974;4.968;2023-08-12T11:53:19;23.20;99.90
9975;DHT22;5028;50.974;4.968;2023-08-12T11:55:49;23.30;99.90
9975;DHT22;5028;50.974;4.968;2023-08-12T11:58:18;23.60;99.90
9975;DHT22;5028;50.974;4.968;2023-08-12T12:00:49;23.90;99.90
9975;DHT22;5028;50.974;4.968;2023-08-12T12:03:19;24.00;99.90
9975;DHT22;5028;50.974;4.968;2023-08-12T12:05:48;24.00;99.90
9975;DHT22;5028;50.974;4.968;2023-08-12T12:08:18;24.30;99.90
9975;DHT22;5028;50.974;4.968;2023-08-12T12:10:48;24.40;99.90
9975;DHT22;5028;50.974;4.968;2023-08-12T12:13:17;24.50;99.90
9975;DHT22;5028;50.974;4.968;2023-08-12T12:15:48;24.20;99.90
9975;DHT22;5028;50.974;4.968;2023-08-12T12:18:18;24.20;99.90
9975;DHT22;5028;50.974;4.968;2023-08-12T12:20:56;23.80;99.90
9975;DHT22;5028;50.974;4.968;2023-08-12T12:23:31;23.50;99.90
9975;DHT22;5028;50.974;4.968;2023-08-12T12:26:02;23.60;99.90
9975;DHT22;5028;50.974;4.968;2023-08-12T12:28:32;24.10;99.90
9975;DHT22;5028;50.974;4.968;2023-08-12T12:31:04;24.50;99.90
9975;DHT22;5028;50.974;4.968;2023-08-12T12:33:35;25.10;99.90
9975;DHT22;5028;50.974;4.968;2023-08-12T12:36:04;25.30;99.90
9975;DHT22;5028;50.974;4.968;2023-08-12T12:38:35;24.80;99.90
9975;DHT22;5028;50.974;4.968;2023-08-12T12:41:04;24.40;99.90
9975;DHT22;5028;50.974;4.968;2023-08-12T12:43:33;24.50;99.90
9975;DHT22;5028;50.974;4.968;2023-08-12T12:46:03;24.40;99.90
9975;DHT22;5028;50.974;4.968;2023-08-12T12:48:34;24.20;99.90
9975;DHT22;5028;50.974;4.968;2023-08-12T12:51:03;24.30;99.90
9975;DHT22;5028;50.974;4.968;2023-08-12T12:53:32;24.70;99.90
9975;DHT22;5028;50.974;4.968;2023-08-12T12:56:01;25.00;99.90
9975;DHT22;5028;50.974;4.968;2023-08-12T12:58:33;24.90;99.90
9975;DHT22;5028;50.974;4.968;2023-08-12T13:01:04;25.20;99.90
9975;DHT22;5028;50.974;4.968;2023-08-12T13:03:33;25.40;99.90
9975;DHT22;5028;50.974;4.968;2023-08-12T13:06:05;25.30;99.90
9975;DHT22;5028;50.974;4.968;2023-08-12T13:08:34;25.40;99.90
9975;DHT22;5028;50.974;4.968;2023-08-12T13:11:04;25.50;99.90
9975;DHT22;5028;50.974;4.968;2023-08-12T13:13:33;25.70;99.90
9975;DHT22;5028;50.974;4.968;2023-08-12T13:16:05;25.80;99.90
9975;DHT22;5028;50.974;4.968;2023-08-12T13:18:35;26.00;99.90
9975;DHT22;5028;50.974;4.968;2023-08-12T13:21:06;26.30;99.90
9975;DHT22;5028;50.974;4.968;2023-08-12T13:23:36;26.60;99.90
9975;DHT22;5028;50.974;4.968;2023-08-12T13:26:04;26.80;99.90
9975;DHT22;5028;50.974;4.968;2023-08-12T13:28:35;26.90;99.90
9975;DHT22;5028;50.974;4.968;2023-08-12T13:31:07;27.00;99.90
9975;DHT22;5028;50.974;4.968;2023-08-12T13:33:41;27.30;99.90
9975;DHT22;5028;50.974;4.968;2023-08-12T13:36:10;27.60;99.90
9975;DHT22;5028;50.974;4.968;2023-08-12T13:38:39;27.30;99.90
9975;DHT22;5028;50.974;4.968;2023-08-12T13:41:07;26.50;99.90
9975;DHT22;5028;50.974;4.968;2023-08-12T13:43:36;26.10;99.90
9975;DHT22;5028;50.974;4.968;2023-08-12T13:46:06;26.10;99.90
9975;DHT22;5028;50.974;4.968;2023-08-12T13:48:35;26.00;99.90
9975;DHT22;5028;50.974;4.968;2023-08-12T13:51:07;25.60;99.90
9975;DHT22;5028;50.974;4.968;2023-08-12T13:53:36;25.40;99.90
9975;DHT22;5028;50.974;4.968;2023-08-12T13:56:06;25.30;99.90
9975;DHT22;5028;50.974;4.968;2023-08-12T13:58:37;25.30;99.90
9975;DHT22;5028;50.974;4.968;2023-08-12T14:01:07;25.30;99.90
9975;DHT22;5028;50.974;4.968;2023-08-12T14:03:39;25.70;99.90
9975;DHT22;5028;50.974;4.968;2023-08-12T14:06:08;26.00;99.90
9975;DHT22;5028;50.974;4.968;2023-08-12T14:08:37;26.20;99.90
9975;DHT22;5028;50.974;4.968;2023-08-12T14:11:05;26.30;99.90
9975;DHT22;5028;50.974;4.968;2023-08-12T14:13:34;26.60;99.90
9975;DHT22;5028;50.974;4.968;2023-08-12T14:16:03;26.70;99.90
9975;DHT22;5028;50.974;4.968;2023-08-12T14:18:35;26.80;99.90
9975;DHT22;5028;50.974;4.968;2023-08-12T14:21:03;26.80;99.90
9975;DHT22;5028;50.974;4.968;2023-08-12T14:23:33;26.50;99.90
9975;DHT22;5028;50.974;4.968;2023-08-12T14:26:01;26.20;99.90
9975;DHT22;5028;50.974;4.968;2023-08-12T14:28:30;26.00;99.90
9975;DHT22;5028;50.974;4.968;2023-08-12T14:30:59;26.30;99.90
9975;DHT22;5028;50.974;4.968;2023-08-12T14:33:31;26.40;99.90
9975;DHT22;5028;50.974;4.968;2023-08-12T14:36:01;26.50;99.90
9975;DHT22;5028;50.974;4.968;2023-08-12T14:38:30;26.70;99.90
9975;DHT22;5028;50.974;4.968;2023-08-12T14:41:00;26.70;99.90
9975;DHT22;5028;50.974;4.968;2023-08-12T14:43:28;26.70;99.90
9975;DHT22;5028;50.974;4.968;2023-08-12T14:46:00;26.70;99.90
9975;DHT22;5028;50.974;4.968;2023-08-12T14:48:31;26.60;99.90
9975;DHT22;5028;50.974;4.968;2023-08-12T14:51:02;26.60;99.90
9975;DHT22;5028;50.974;4.968;2023-08-12T14:53:33;26.60;99.90
9975;DHT22;5028;50.974;4.968;2023-08-12T14:56:03;26.40;99.90
9975;DHT22;5028;50.974;4.968;2023-08-12T14:58:32;26.30;99.90
9975;DHT22;5028;50.974;4.968;2023-08-12T15:01:01;26.20;99.90
9975;DHT22;5028;50.974;4.968;2023-08-12T15:03:30;26.10;99.90
9975;DHT22;5028;50.974;4.968;2023-08-12T15:06:02;26.10;99.90
9975;DHT22;5028;50.974;4.968;2023-08-12T15:08:33;25.80;99.90
9975;DHT22;5028;50.974;4.968;2023-08-12T15:11:02;25.70;99.90
9975;DHT22;5028;50.974;4.968;2023-08-12T15:13:31;25.60;99.90
9975;DHT22;5028;50.974;4.968;2023-08-12T15:15:59;25.70;99.90
9975;DHT22;5028;50.974;4.968;2023-08-12T15:18:28;25.50;99.90
9975;DHT22;5028;50.974;4.968;2023-08-12T15:20:57;25.50;99.90
9975;DHT22;5028;50.974;4.968;2023-08-12T15:23:28;25.40;99.90
9975;DHT22;5028;50.974;4.968;2023-08-12T15:25:58;25.40;99.90
9975;DHT22;5028;50.974;4.968;2023-08-12T15:28:27;25.30;99.90
9975;DHT22;5028;50.974;4.968;2023-08-12T15:30:56;25.20;99.90
9975;DHT22;5028;50.974;4.968;2023-08-12T15:33:25;25.10;99.90
9975;DHT22;5028;50.974;4.968;2023-08-12T15:35:57;24.90;99.90
9975;DHT22;5028;50.974;4.968;2023-08-12T15:38:25;24.90;99.90
9975;DHT22;5028;50.974;4.968;2023-08-12T15:40:57;24.80;99.90
9975;DHT22;5028;50.974;4.968;2023-08-12T15:43:26;24.70;99.90
9975;DHT22;5028;50.974;4.968;2023-08-12T15:45:55;24.70;99.90
9975;DHT22;5028;50.974;4.968;2023-08-12T15:48:24;24.70;99.90
9975;DHT22;5028;50.974;4.968;2023-08-12T15:50:54;24.80;99.90
9975;DHT22;5028;50.974;4.968;2023-08-12T15:53:25;24.70;99.90
9975;DHT22;5028;50.974;4.968;2023-08-12T15:55:54;24.60;99.90
9975;DHT22;5028;50.974;4.968;2023-08-12T15:58:24;24.60;99.90
9975;DHT22;5028;50.974;4.968;2023-08-12T16:00:53;24.70;99.90
9975;DHT22;5028;50.974;4.968;2023-08-12T16:03:23;24.80;99.90
9975;DHT22;5028;50.974;4.968;2023-08-12T16:05:56;24.80;99.90
9975;DHT22;5028;50.974;4.968;2023-08-12T16:08:26;24.70;99.90
9975;DHT22;5028;50.974;4.968;2023-08-12T16:10:55;24.50;99.90
9975;DHT22;5028;50.974;4.968;2023-08-12T16:13:25;24.50;99.90
9975;DHT22;5028;50.974;4.968;2023-08-12T16:15:54;24.40;99.90
9975;DHT22;5028;50.974;4.968;2023-08-12T16:18:24;24.40;99.90
9975;DHT22;5028;50.974;4.968;2023-08-12T16:20:53;24.40;99.90